createdAt,value
2023-01-28T00:03:42.121Z,12.40
2023-01-28T00:08:43.632Z,9.90
2023-01-28T00:13:45.170Z,10.63
2023-01-28T00:18:46.656Z,9.57
2023-01-28T00:23:52.530Z,9.27
2023-01-28T00:28:54.104Z,10.05
2023-01-28T00:33:56.929Z,10.18
2023-01-28T00:38:59.366Z,12.10
2023-01-28T00:44:00.975Z,10.65
2023-01-28T00:49:04.225Z,10.45
2023-01-28T00:54:05.996Z,10.27
2023-01-28T00:59:08.282Z,10.70
2023-01-28T01:04:09.754Z,9.75
2023-01-28T01:09:11.778Z,11.20
2023-01-28T01:14:15.231Z,12.60
2023-01-28T01:19:16.746Z,11.13
2023-01-28T01:24:18.345Z,9.85
2023-01-28T01:29:19.831Z,9.93
2023-01-28T01:34:21.499Z,10.73
2023-01-28T01:39:23.797Z,11.27
2023-01-28T01:44:59.554Z,10.48
2023-01-28T01:50:21.932Z,10.32
2023-01-28T01:55:26.868Z,10.52
2023-01-28T02:00:28.757Z,10.80
2023-01-28T02:05:30.287Z,11.38
2023-01-28T02:10:32.036Z,10.80
2023-01-28T02:15:34.192Z,11.13
2023-01-28T02:20:37.390Z,10.27
2023-01-28T02:25:51.893Z,10.50
2023-01-28T02:31:16.470Z,10.77
2023-01-28T02:36:36.130Z,10.00
2023-01-28T02:41:53.049Z,9.63
2023-01-28T02:46:55.072Z,10.50
2023-01-28T02:52:29.980Z,9.55
2023-01-28T02:57:42.409Z,10.02
2023-01-28T03:02:53.791Z,10.10
2023-01-28T03:07:55.818Z,10.00
2023-01-28T03:12:59.110Z,9.57
2023-01-28T03:18:00.579Z,9.93
2023-01-28T03:23:08.782Z,8.73
2023-01-28T03:28:15.670Z,9.98
2023-01-28T03:33:19.092Z,8.85
2023-01-28T03:38:21.164Z,9.18
2023-01-28T03:43:24.093Z,9.35
2023-01-28T03:48:27.773Z,9.45
2023-01-28T03:53:29.409Z,9.90
2023-01-28T03:58:32.987Z,10.43
2023-01-28T04:03:35.658Z,9.15
2023-01-28T04:08:40.934Z,10.18
2023-01-28T04:13:58.380Z,10.27
2023-01-28T04:19:02.334Z,10.57
2023-01-28T04:24:05.277Z,9.18
2023-01-28T04:29:07.779Z,10.32
2023-01-28T04:34:11.217Z,9.50
2023-01-28T04:39:33.000Z,9.90
2023-01-28T04:44:44.430Z,10.23
2023-01-28T04:50:12.174Z,10.32
2023-01-28T04:55:31.951Z,9.80
2023-01-28T05:00:34.971Z,10.60
2023-01-28T05:05:36.950Z,9.65
2023-01-28T05:10:52.512Z,11.23
2023-01-28T05:15:54.199Z,10.30
2023-01-28T05:20:56.215Z,10.65
2023-01-28T05:25:58.191Z,9.32
2023-01-28T05:31:04.212Z,8.75
2023-01-28T05:36:06.048Z,10.20
2023-01-28T05:41:07.655Z,9.90
2023-01-28T05:46:10.498Z,10.27
2023-01-28T05:51:30.434Z,10.18
2023-01-28T05:56:33.643Z,10.30
2023-01-28T06:01:36.617Z,9.23
2023-01-28T06:06:38.220Z,10.60
2023-01-28T06:11:40.782Z,9.05
2023-01-28T06:16:42.365Z,10.13
2023-01-28T06:21:58.753Z,10.70
2023-01-28T06:27:00.336Z,11.23
2023-01-28T06:32:01.808Z,11.43
2023-01-28T06:37:03.337Z,10.13
2023-01-28T06:42:05.029Z,10.73
2023-01-28T06:47:06.536Z,10.70
2023-01-28T06:52:08.079Z,10.18
2023-01-28T06:57:09.598Z,11.45
2023-01-28T07:02:11.735Z,10.85
2023-01-28T07:07:13.194Z,9.98
2023-01-28T07:12:14.609Z,9.13
2023-01-28T07:17:16.112Z,11.50
2023-01-28T07:22:17.601Z,11.57
2023-01-28T07:27:19.027Z,10.43
2023-01-28T07:32:20.488Z,9.45
2023-01-28T07:37:22.024Z,10.52
2023-01-28T07:42:23.565Z,10.10
2023-01-28T07:47:27.301Z,10.18
2023-01-28T07:52:28.830Z,10.30
2023-01-28T07:57:30.271Z,9.50
2023-01-28T08:02:32.121Z,10.80
2023-01-28T08:07:33.582Z,10.95
2023-01-28T08:12:35.002Z,10.18
2023-01-28T08:17:36.430Z,11.05
2023-01-28T08:22:37.951Z,9.60
2023-01-28T08:27:39.569Z,9.45
2023-01-28T08:32:41.044Z,10.05
2023-01-28T08:37:42.598Z,9.73
2023-01-28T08:42:52.392Z,12.05
2023-01-28T08:53:04.529Z,11.43
2023-01-28T08:58:09.755Z,10.35
2023-01-28T09:03:11.428Z,9.20
2023-01-28T09:08:14.785Z,9.88
2023-01-28T09:13:16.295Z,10.35
2023-01-28T09:18:18.516Z,10.70
2023-01-28T09:23:19.968Z,9.20
2023-01-28T09:28:21.461Z,8.65
2023-01-28T09:33:22.910Z,9.52
2023-01-28T09:38:24.355Z,8.77
2023-01-28T09:43:37.696Z,7.88
2023-01-28T09:48:44.543Z,8.45
2023-01-28T09:53:51.169Z,10.00
2023-01-28T09:58:52.671Z,8.32
2023-01-28T10:04:09.644Z,8.75
2023-01-28T10:09:31.649Z,8.10
2023-01-28T10:14:42.791Z,8.10
2023-01-28T10:19:56.464Z,8.18
2023-01-28T10:25:02.480Z,8.23
2023-01-28T10:30:31.868Z,8.25
2023-01-28T10:35:39.633Z,8.43
2023-01-28T10:40:42.503Z,9.07
2023-01-28T10:46:03.075Z,9.18
2023-01-28T10:51:05.594Z,8.27
2023-01-28T10:56:23.564Z,9.50
2023-01-28T11:01:25.733Z,9.10
2023-01-28T11:06:29.215Z,8.95
2023-01-28T11:11:30.750Z,7.97
2023-01-28T11:16:32.484Z,7.85
2023-01-28T11:21:35.354Z,8.50
2023-01-28T11:26:39.669Z,8.82
2023-01-28T11:31:44.137Z,9.15
2023-01-28T11:36:54.401Z,9.25
2023-01-28T11:42:11.926Z,7.50
2023-01-28T11:47:29.901Z,8.90
2023-01-28T11:53:07.097Z,7.95
2023-01-28T11:58:21.256Z,7.53
2023-01-28T12:03:39.102Z,7.93
2023-01-28T12:08:45.662Z,8.90
2023-01-28T12:13:52.203Z,7.70
2023-01-28T12:19:11.967Z,7.00
2023-01-28T12:24:40.882Z,6.78
2023-01-28T12:29:49.369Z,6.95
2023-01-28T12:35:01.697Z,7.55
2023-01-28T12:40:24.322Z,7.63
2023-01-28T12:45:43.561Z,6.85
2023-01-28T12:50:51.161Z,7.57
2023-01-28T12:56:20.583Z,8.35
2023-01-28T13:01:29.913Z,7.30
2023-01-28T13:06:41.500Z,7.00
2023-01-28T13:11:43.610Z,6.75
2023-01-28T13:16:45.167Z,7.95
2023-01-28T13:21:49.614Z,8.38
2023-01-28T13:26:57.953Z,7.63
2023-01-28T13:32:02.254Z,7.43
2023-01-28T13:37:17.497Z,7.03
2023-01-28T13:42:26.252Z,7.28
2023-01-28T13:47:33.487Z,7.32
2023-01-28T13:52:49.118Z,7.35
2023-01-28T13:58:17.086Z,7.30
2023-01-28T14:03:46.032Z,7.50
2023-01-28T14:09:08.666Z,6.95
2023-01-28T14:14:47.867Z,7.75
2023-01-28T14:19:52.714Z,7.85
2023-01-28T14:24:55.897Z,6.75
2023-01-28T14:30:13.969Z,8.43
2023-01-28T14:35:30.433Z,8.40
2023-01-28T14:40:33.789Z,8.07
2023-01-28T14:45:56.509Z,7.90
2023-01-28T14:50:57.920Z,8.07
2023-01-28T14:56:23.330Z,7.95
2023-01-28T15:01:30.424Z,7.68
2023-01-28T15:06:35.832Z,9.23
2023-01-28T15:11:40.298Z,9.43
2023-01-28T15:16:48.051Z,8.00
2023-01-28T15:21:49.633Z,8.02
2023-01-28T15:26:51.439Z,7.15
2023-01-28T15:31:53.152Z,8.57
2023-01-28T15:36:54.769Z,9.60
2023-01-28T15:42:03.394Z,8.20
2023-01-28T15:47:15.890Z,7.78
2023-01-28T15:52:17.588Z,9.20
2023-01-28T15:57:27.218Z,8.60
2023-01-28T16:02:31.773Z,8.30
2023-01-28T16:07:33.877Z,8.57
2023-01-28T16:12:35.540Z,7.95
2023-01-28T16:17:47.236Z,8.68
2023-01-28T16:22:49.030Z,7.28
2023-01-28T16:27:50.587Z,8.65
2023-01-28T16:32:52.610Z,7.82
2023-01-28T16:37:54.082Z,8.75
2023-01-28T16:42:55.525Z,8.20
2023-01-28T16:47:57.036Z,8.57
2023-01-28T16:52:59.367Z,8.77
2023-01-28T16:58:00.922Z,9.88
2023-01-28T17:03:02.548Z,8.75
2023-01-28T17:08:04.255Z,8.95
2023-01-28T17:13:05.717Z,8.40
2023-01-28T17:18:10.189Z,9.05
2023-01-28T17:23:15.582Z,8.25
2023-01-28T17:28:17.169Z,9.13
2023-01-28T17:33:18.728Z,8.07
2023-01-28T17:38:20.262Z,7.72
2023-01-28T17:43:21.702Z,7.90
2023-01-28T17:48:23.778Z,9.25
2023-01-28T17:53:25.308Z,8.73
2023-01-28T17:58:26.759Z,11.07
2023-01-28T18:03:28.254Z,10.48
2023-01-28T18:08:29.750Z,9.60
2023-01-28T18:13:31.735Z,9.32
2023-01-28T18:18:34.016Z,10.27
2023-01-28T18:23:35.521Z,9.63
2023-01-28T18:28:37.041Z,10.13
2023-01-28T18:33:38.501Z,10.48
2023-01-28T18:38:40.021Z,9.48
2023-01-28T18:43:42.306Z,10.50
2023-01-28T18:48:44.140Z,10.48
2023-01-28T18:53:45.592Z,10.10
2023-01-28T18:58:47.094Z,10.15
2023-01-28T19:03:48.650Z,10.68
2023-01-28T19:08:55.090Z,9.77
2023-01-28T19:13:56.618Z,10.63
2023-01-28T19:19:00.409Z,10.07
2023-01-28T19:24:04.838Z,10.18
2023-01-28T19:29:08.214Z,10.40
2023-01-28T19:34:10.253Z,10.90
2023-01-28T19:39:12.592Z,10.95
2023-01-28T19:44:14.146Z,10.35
2023-01-28T19:49:15.652Z,11.05
2023-01-28T19:54:17.197Z,12.07
2023-01-28T19:59:18.751Z,10.35
2023-01-28T20:04:20.269Z,9.52
2023-01-28T20:09:21.909Z,10.38
2023-01-28T20:14:23.507Z,11.30
2023-01-28T20:19:24.963Z,13.07
2023-01-28T20:24:26.430Z,12.63
2023-01-28T20:29:27.908Z,19.48
2023-01-28T20:34:29.429Z,17.98
2023-01-28T20:39:30.878Z,10.82
2023-01-28T20:44:32.320Z,11.00
2023-01-28T20:49:33.790Z,11.98
2023-01-28T20:54:35.226Z,10.10
2023-01-28T20:59:36.754Z,10.35
2023-01-28T21:04:38.199Z,10.85
2023-01-28T21:09:40.085Z,11.38
2023-01-28T21:14:41.546Z,12.10
2023-01-28T21:19:43.098Z,11.50
2023-01-28T21:24:44.602Z,11.65
2023-01-28T21:29:46.037Z,9.95
2023-01-28T21:34:47.529Z,12.20
2023-01-28T21:39:49.078Z,10.40
2023-01-28T21:44:50.580Z,11.88
2023-01-28T21:49:52.039Z,11.38
2023-01-28T21:54:53.479Z,12.02
2023-01-28T21:59:55.016Z,12.23
2023-01-28T22:04:56.466Z,23.45
2023-01-28T22:09:58.015Z,12.18
2023-01-28T22:14:59.520Z,11.45
2023-01-28T22:20:01.030Z,11.32
2023-01-28T22:25:02.522Z,10.68
2023-01-28T22:30:04.399Z,11.05
2023-01-28T22:35:05.997Z,12.05
2023-01-28T22:40:08.047Z,11.70
2023-01-28T22:45:10.189Z,11.18
2023-01-28T22:50:12.178Z,11.75
2023-01-28T22:55:13.885Z,11.77
2023-01-28T23:00:16.610Z,11.35
2023-01-28T23:05:18.361Z,13.65
2023-01-28T23:10:19.913Z,10.80
2023-01-28T23:15:21.384Z,11.65
2023-01-28T23:20:22.927Z,11.48
2023-01-28T23:25:24.431Z,10.95
2023-01-28T23:30:25.967Z,11.60
2023-01-28T23:35:28.062Z,11.77
2023-01-28T23:40:30.640Z,12.30
2023-01-28T23:45:32.167Z,13.43
2023-01-28T23:50:33.683Z,13.27
2023-01-28T23:55:37.994Z,14.02
